createdAt,value
2023-03-03T00:01:29.709Z,13.20
2023-03-03T00:06:33.325Z,13.10
2023-03-03T00:11:38.214Z,13.00
2023-03-03T00:16:42.199Z,13.00
2023-03-03T00:21:47.798Z,13.00
2023-03-03T00:26:55.627Z,13.00
2023-03-03T00:32:33.973Z,12.90
2023-03-03T00:37:42.497Z,12.90
2023-03-03T00:42:50.900Z,12.80
2023-03-03T00:47:54.551Z,12.80
2023-03-03T00:53:04.659Z,12.70
2023-03-03T00:58:09.598Z,12.70
2023-03-03T01:03:20.002Z,12.70
2023-03-03T01:08:24.050Z,12.60
2023-03-03T01:13:31.495Z,12.60
2023-03-03T01:18:36.235Z,12.60
2023-03-03T01:23:40.231Z,12.50
2023-03-03T01:28:45.060Z,12.40
2023-03-03T01:33:48.415Z,12.40
2023-03-03T01:38:52.218Z,12.40
2023-03-03T01:43:57.515Z,12.40
2023-03-03T01:49:04.198Z,12.30
2023-03-03T01:54:13.686Z,12.30
2023-03-03T01:59:22.607Z,12.30
2023-03-03T02:04:27.857Z,12.20
2023-03-03T02:09:38.716Z,12.20
2023-03-03T02:14:44.064Z,12.20
2023-03-03T02:19:56.222Z,12.10
2023-03-03T02:25:03.645Z,12.10
2023-03-03T02:30:15.920Z,12.10
2023-03-03T02:35:39.329Z,12.10
2023-03-03T02:40:50.941Z,12.00
2023-03-03T02:45:55.964Z,12.00
2023-03-03T02:51:02.047Z,12.00
2023-03-03T02:56:07.485Z,12.00
2023-03-03T03:01:12.666Z,12.00
2023-03-03T03:06:16.666Z,12.00
2023-03-03T03:11:20.462Z,11.90
2023-03-03T03:16:26.234Z,11.90
2023-03-03T03:21:30.150Z,11.90
2023-03-03T03:26:34.841Z,11.90
2023-03-03T03:31:41.052Z,11.90
2023-03-03T03:36:47.093Z,11.90
2023-03-03T03:41:52.851Z,11.90
2023-03-03T03:46:58.031Z,11.90
2023-03-03T03:52:02.564Z,11.90
2023-03-03T03:57:09.148Z,11.90
2023-03-03T04:02:14.803Z,11.90
2023-03-03T04:07:18.556Z,11.90
2023-03-03T04:12:22.085Z,11.80
2023-03-03T04:17:26.986Z,11.80
2023-03-03T04:22:34.107Z,11.80
2023-03-03T04:27:38.537Z,11.80
2023-03-03T04:32:44.308Z,11.80
2023-03-03T04:37:49.718Z,11.70
2023-03-03T04:42:53.845Z,11.70
2023-03-03T04:47:59.404Z,11.70
2023-03-03T04:53:03.111Z,11.70
2023-03-03T04:58:06.895Z,11.60
2023-03-03T05:03:13.438Z,11.60
2023-03-03T05:08:19.128Z,11.60
2023-03-03T05:13:22.847Z,11.60
2023-03-03T05:18:35.446Z,11.50
2023-03-03T05:23:39.500Z,11.50
2023-03-03T05:28:42.854Z,11.50
2023-03-03T05:33:47.659Z,11.50
2023-03-03T05:38:51.109Z,11.40
2023-03-03T05:43:54.872Z,11.40
2023-03-03T05:49:00.069Z,11.40
2023-03-03T05:54:03.510Z,11.30
2023-03-03T05:59:06.968Z,11.30
2023-03-03T06:04:12.053Z,11.30
2023-03-03T06:09:15.717Z,11.40
2023-03-03T06:14:19.174Z,11.40
2023-03-03T06:19:24.122Z,11.40
2023-03-03T06:24:30.498Z,11.50
2023-03-03T06:29:33.964Z,11.50
2023-03-03T06:34:38.842Z,11.50
2023-03-03T06:39:42.559Z,11.50
2023-03-03T06:44:46.161Z,11.60
2023-03-03T06:49:50.884Z,11.60
2023-03-03T06:54:56.770Z,11.70
2023-03-03T07:00:21.552Z,11.70
2023-03-03T07:05:29.115Z,11.80
2023-03-03T07:10:32.679Z,11.80
2023-03-03T07:15:37.850Z,11.90
2023-03-03T07:20:42.935Z,11.90
2023-03-03T07:25:47.070Z,12.00
2023-03-03T07:30:50.612Z,12.00
2023-03-03T07:35:57.836Z,12.10
2023-03-03T07:41:03.263Z,12.20
2023-03-03T07:46:29.440Z,12.30
2023-03-03T07:51:42.374Z,12.30
2023-03-03T07:56:46.307Z,12.40
2023-03-03T08:01:55.360Z,12.50
2023-03-03T08:07:01.457Z,12.60
2023-03-03T08:12:35.184Z,12.70
2023-03-03T08:17:40.794Z,12.80
2023-03-03T08:22:45.752Z,12.80
2023-03-03T08:27:49.356Z,12.90
2023-03-03T08:32:52.838Z,13.00
2023-03-03T08:37:58.132Z,13.10
2023-03-03T08:43:01.971Z,13.30
2023-03-03T08:48:06.316Z,13.30
2023-03-03T08:53:11.908Z,13.40
2023-03-03T08:58:16.249Z,13.50
2023-03-03T09:03:19.664Z,13.60
2023-03-03T09:08:24.521Z,13.80
2023-03-03T09:13:30.246Z,13.90
2023-03-03T09:18:37.634Z,14.10
2023-03-03T09:23:43.769Z,14.30
2023-03-03T09:28:47.111Z,14.50
2023-03-03T09:33:52.140Z,14.70
2023-03-03T09:38:57.998Z,14.90
2023-03-03T09:44:23.858Z,15.20
2023-03-03T09:49:34.089Z,15.40
2023-03-03T09:54:54.310Z,15.60
2023-03-03T10:00:11.276Z,15.90
2023-03-03T10:05:30.622Z,16.20
2023-03-03T10:10:50.071Z,16.40
2023-03-03T10:16:05.202Z,16.60
2023-03-03T10:21:13.010Z,16.90
2023-03-03T10:26:43.913Z,17.10
2023-03-03T10:32:02.413Z,17.40
2023-03-03T10:37:12.364Z,17.60
2023-03-03T10:42:29.612Z,17.90
2023-03-03T10:47:51.691Z,18.10
2023-03-03T10:53:04.796Z,18.40
2023-03-03T10:58:24.140Z,18.70
2023-03-03T11:04:04.996Z,18.90
2023-03-03T11:09:18.636Z,19.10
2023-03-03T11:14:31.364Z,19.40
2023-03-03T11:20:02.185Z,19.70
2023-03-03T11:25:22.643Z,19.90
2023-03-03T11:30:41.021Z,20.20
2023-03-03T11:35:50.430Z,20.40
2023-03-03T11:40:57.796Z,20.60
2023-03-03T11:46:08.646Z,20.80
2023-03-03T11:51:17.043Z,21.00
2023-03-03T11:56:26.363Z,21.10
2023-03-03T12:01:37.983Z,21.20
2023-03-03T12:06:54.836Z,21.30
2023-03-03T12:12:04.712Z,21.30
2023-03-03T12:17:18.568Z,21.40
2023-03-03T12:22:34.143Z,21.40
2023-03-03T12:27:44.427Z,21.40
2023-03-03T12:33:05.804Z,21.50
2023-03-03T12:38:18.109Z,21.40
2023-03-03T12:43:37.917Z,21.40
2023-03-03T12:48:45.220Z,21.40
2023-03-03T12:54:07.585Z,21.30
2023-03-03T12:59:18.348Z,21.20
2023-03-03T13:04:35.611Z,21.00
2023-03-03T13:09:50.535Z,20.80
2023-03-03T13:15:01.535Z,20.70
2023-03-03T13:20:18.640Z,20.70
2023-03-03T13:25:40.836Z,20.60
2023-03-03T13:30:49.923Z,20.50
2023-03-03T13:35:58.012Z,20.40
2023-03-03T13:41:11.790Z,20.30
2023-03-03T13:46:21.933Z,20.20
2023-03-03T13:51:37.589Z,20.10
2023-03-03T13:57:01.637Z,20.00
2023-03-03T14:02:20.770Z,19.80
2023-03-03T14:07:34.944Z,19.70
2023-03-03T14:12:46.304Z,19.60
2023-03-03T14:18:03.539Z,19.60
2023-03-03T14:23:14.749Z,19.50
2023-03-03T14:28:21.388Z,19.40
2023-03-03T14:33:31.011Z,19.40
2023-03-03T14:38:47.870Z,19.30
2023-03-03T14:43:59.690Z,19.20
2023-03-03T14:49:05.200Z,19.10
2023-03-03T14:54:20.636Z,19.00
2023-03-03T14:59:27.054Z,19.00
2023-03-03T15:04:31.997Z,19.00
2023-03-03T15:09:43.412Z,18.90
2023-03-03T15:14:48.588Z,18.80
2023-03-03T15:20:06.281Z,18.80
2023-03-03T15:25:22.840Z,18.80
2023-03-03T15:30:33.266Z,18.80
2023-03-03T15:35:45.984Z,18.70
2023-03-03T15:40:58.500Z,18.70
2023-03-03T15:46:13.605Z,18.70
2023-03-03T15:51:31.527Z,18.60
2023-03-03T15:56:43.351Z,18.60
2023-03-03T16:01:57.466Z,18.60
2023-03-03T16:07:07.926Z,18.60
2023-03-03T16:12:21.944Z,18.60
2023-03-03T16:17:32.649Z,18.60
2023-03-03T16:23:01.984Z,18.50
2023-03-03T16:28:11.893Z,18.50
2023-03-03T16:33:25.017Z,18.50
2023-03-03T16:38:34.671Z,18.50
2023-03-03T16:43:48.748Z,18.40
2023-03-03T16:49:01.899Z,18.40
2023-03-03T16:54:11.686Z,18.40
2023-03-03T16:59:42.117Z,18.40
2023-03-03T17:04:49.534Z,18.30
2023-03-03T17:10:05.316Z,18.30
2023-03-03T17:15:23.246Z,18.30
2023-03-03T17:20:36.554Z,18.30
2023-03-03T17:25:47.897Z,18.20
2023-03-03T17:31:00.272Z,18.20
2023-03-03T17:36:17.363Z,18.10
2023-03-03T17:41:30.426Z,18.00
2023-03-03T17:46:43.044Z,18.00
2023-03-03T17:52:15.059Z,17.90
2023-03-03T17:57:36.201Z,17.80
2023-03-03T18:03:17.300Z,17.80
2023-03-03T18:08:42.193Z,17.70
2023-03-03T18:14:01.884Z,17.70
2023-03-03T18:19:24.981Z,17.70
2023-03-03T18:24:35.316Z,17.60
2023-03-03T18:29:39.857Z,17.50
2023-03-03T18:34:46.477Z,17.40
2023-03-03T18:40:18.744Z,17.40
2023-03-03T18:45:51.560Z,17.30
2023-03-03T18:50:58.018Z,17.30
2023-03-03T18:56:04.428Z,17.20
2023-03-03T19:01:31.636Z,17.10
2023-03-03T19:07:09.699Z,17.00
2023-03-03T19:12:19.788Z,16.90
2023-03-03T19:17:46.422Z,16.90
2023-03-03T19:22:53.166Z,16.80
2023-03-03T19:28:16.199Z,16.70
2023-03-03T19:33:44.112Z,16.70
2023-03-03T19:39:02.814Z,16.60
2023-03-03T19:44:21.038Z,16.60
2023-03-03T19:49:41.668Z,16.50
2023-03-03T19:55:01.604Z,16.50
2023-03-03T20:00:20.032Z,16.40
2023-03-03T20:05:38.427Z,16.30
2023-03-03T20:10:52.118Z,16.30
2023-03-03T20:16:13.038Z,16.30
2023-03-03T20:21:25.599Z,16.20
2023-03-03T20:26:35.778Z,16.20
2023-03-03T20:31:51.836Z,16.10
2023-03-03T20:37:19.182Z,16.00
2023-03-03T20:42:35.057Z,16.00
2023-03-03T20:47:52.051Z,15.90
2023-03-03T20:53:09.393Z,15.80
2023-03-03T20:58:21.688Z,15.70
2023-03-03T21:03:34.781Z,15.70
2023-03-03T21:08:44.715Z,15.70
2023-03-03T21:13:52.373Z,15.70
2023-03-03T21:19:04.188Z,15.60
2023-03-03T21:24:08.614Z,15.60
2023-03-03T21:29:18.795Z,15.50
2023-03-03T21:34:28.743Z,15.40
2023-03-03T21:39:33.956Z,15.30
2023-03-03T21:44:40.883Z,15.20
2023-03-03T21:49:47.113Z,15.10
2023-03-03T21:54:52.585Z,15.10
2023-03-03T21:59:56.095Z,15.00
2023-03-03T22:05:02.643Z,15.00
2023-03-03T22:10:07.756Z,14.90
2023-03-03T22:15:11.830Z,14.90
2023-03-03T22:20:17.109Z,14.80
2023-03-03T22:25:20.535Z,14.80
2023-03-03T22:30:23.870Z,14.70
2023-03-03T22:35:28.753Z,14.70
2023-03-03T22:40:32.162Z,14.60
2023-03-03T22:45:35.526Z,14.60
2023-03-03T22:50:42.876Z,14.50
2023-03-03T22:55:46.210Z,14.50
2023-03-03T23:00:49.957Z,14.40
2023-03-03T23:05:54.970Z,14.40
2023-03-03T23:10:58.312Z,14.30
2023-03-03T23:16:03.445Z,14.30
2023-03-03T23:21:08.263Z,14.30
2023-03-03T23:26:11.722Z,14.20
2023-03-03T23:31:15.263Z,14.20
2023-03-03T23:36:20.206Z,14.10
2023-03-03T23:41:24.815Z,14.10
2023-03-03T23:46:28.217Z,14.00
2023-03-03T23:51:33.266Z,13.90
2023-03-03T23:56:36.756Z,13.80
